Time;durP1;ratioP1;P1;durP2;ratioP2;P2;SDS_P1;SDS_P2;PMS_P1;PMS_P2;Temp;Humidity;BMP_temperature;BMP_pressure;BME280_temperature;BME280_humidity;BME280_pressure;Samples;Min_cycle;Max_cycle;Signal;HPM_P1;HPM_P2
2022/12/16 00:03:26;;;;;;;1.63;1.52;;;;;;;-2.81;91.76;100826.69;10473803;28;20045;-82
2022/12/16 00:08:32;;;;;;;1.33;1.23;;;;;;;-2.84;91.47;100827.38;10474450;28;20052;-81
2022/12/16 00:13:36;;;;;;;2.45;2.25;;;;;;;-2.84;91.39;100829.94;10462603;28;20076;-80
2022/12/16 00:18:42;;;;;;;0.82;0.82;;;;;;;-2.85;91.66;100828.16;10482142;28;20509;-82
2022/12/16 00:23:47;;;;;;;1.20;1.13;;;;;;;-2.88;91.49;100827.94;10481173;28;20196;-82
2022/12/16 00:28:49;;;;;;;0.63;0.63;;;;;;;-2.91;91.82;100833.75;10463496;28;20052;-81
2022/12/16 00:33:58;;;;;;;1.83;1.70;;;;;;;-2.94;91.89;100836.09;10478781;28;20156;-80
2022/12/16 00:39:09;;;;;;;4.75;3.55;;;;;;;-2.95;91.98;100833.41;10452011;28;20135;-82
2022/12/16 00:44:11;;;;;;;2.75;2.55;;;;;;;-2.93;92.12;100834.41;10466526;28;20061;-80
2022/12/16 00:49:15;;;;;;;1.40;1.20;;;;;;;-2.96;92.36;100836.75;10494445;28;20051;-81
2022/12/16 00:54:17;;;;;;;1.52;0.93;;;;;;;-2.94;92.26;100835.16;10467047;28;20041;-81
2022/12/16 00:59:21;;;;;;;2.10;1.90;;;;;;;-2.94;92.51;100830.97;10458690;28;20048;-81
2022/12/16 01:04:25;;;;;;;0.85;0.80;;;;;;;-2.99;92.69;100827.16;10487871;28;20036;-81
2022/12/16 01:09:28;;;;;;;1.75;1.52;;;;;;;-2.92;92.70;100839.63;10464985;28;20049;-81
2022/12/16 01:14:29;;;;;;;0.75;0.75;;;;;;;-2.92;93.33;100842.19;10404302;28;20047;-81
2022/12/16 01:19:34;;;;;;;4.25;3.35;;;;;;;-2.97;93.33;100845.19;10440432;28;20040;-80
2022/12/16 01:24:36;;;;;;;2.63;1.50;;;;;;;-2.95;92.90;100853.91;10455352;28;20032;-81
2022/12/16 01:29:39;;;;;;;1.17;0.88;;;;;;;-2.99;93.12;100851.91;10469282;28;20071;-80
2022/12/16 01:34:51;;;;;;;2.90;2.63;;;;;;;-3.02;93.65;100853.47;10451975;28;20041;-80
2022/12/16 01:39:56;;;;;;;2.88;2.03;;;;;;;-2.98;93.86;100859.69;10423304;28;20037;-81
2022/12/16 01:45:27;;;;;;;2.38;2.17;;;;;;;-3.00;93.62;100863.81;10460362;28;20612;-80
2022/12/16 01:50:32;;;;;;;4.22;2.13;;;;;;;-3.07;93.68;100853.91;10467826;28;20063;-81
2022/12/16 01:55:42;;;;;;;5.28;2.65;;;;;;;-3.04;93.96;100874.63;10470242;28;20044;-80
2022/12/16 02:00:43;;;;;;;1.67;1.48;;;;;;;-2.98;94.06;100880.19;10464490;28;20494;-81
2022/12/16 02:05:51;;;;;;;3.92;1.90;;;;;;;-2.96;94.16;100883.75;10460889;28;20040;-81
2022/12/16 02:11:27;;;;;;;1.98;1.80;;;;;;;-2.97;94.01;100879.41;10443597;28;20159;-81
2022/12/16 02:16:41;;;;;;;1.70;1.35;;;;;;;-2.91;94.64;100886.63;10455792;28;20052;-81
2022/12/16 02:21:58;;;;;;;0.90;0.90;;;;;;;-2.90;94.29;100889.34;10459456;28;20035;-80
2022/12/16 02:27:24;;;;;;;3.00;2.50;;;;;;;-2.90;94.22;100879.09;10475801;28;20060;-80
2022/12/16 02:33:08;;;;;;;2.90;2.30;;;;;;;-2.85;94.25;100887.13;10455599;28;20055;-80
2022/12/16 02:38:22;;;;;;;0.60;0.60;;;;;;;-2.78;94.65;100881.63;10451010;28;20045;-79
2022/12/16 02:43:39;;;;;;;2.28;1.88;;;;;;;-2.80;94.52;100887.44;10450306;28;20661;-81
2022/12/16 02:48:40;;;;;;;1.35;1.08;;;;;;;-2.73;94.69;100893.13;10455436;28;20441;-81
2022/12/16 02:53:47;;;;;;;2.20;1.73;;;;;;;-2.72;94.62;100894.00;10454506;28;20046;-81
2022/12/16 02:59:13;;;;;;;1.25;1.15;;;;;;;-2.65;94.68;100903.03;10448204;28;20264;-81
2022/12/16 03:04:22;;;;;;;0.93;0.82;;;;;;;-2.62;94.44;100901.56;10424519;28;20286;-81
2022/12/16 03:09:28;;;;;;;1.95;1.77;;;;;;;-2.63;94.52;100897.22;10439135;28;20040;-81
2022/12/16 03:14:39;;;;;;;1.65;1.55;;;;;;;-2.61;94.74;100910.16;10439846;28;20041;-80
2022/12/16 03:19:51;;;;;;;2.38;1.98;;;;;;;-2.56;94.52;100911.38;10477995;28;20051;-80
2022/12/16 03:24:53;;;;;;;1.00;0.95;;;;;;;-2.52;94.48;100908.25;10456298;28;20037;-81
2022/12/16 03:30:00;;;;;;;0.77;0.77;;;;;;;-2.52;94.40;100916.84;10455181;28;20187;-81
2022/12/16 03:35:08;;;;;;;2.35;2.08;;;;;;;-2.52;94.40;100924.53;10445933;28;20041;-81
2022/12/16 03:40:21;;;;;;;6.80;1.48;;;;;;;-2.58;94.51;100933.44;10459618;28;20045;-80
2022/12/16 03:45:27;;;;;;;2.65;2.42;;;;;;;-2.58;94.58;100941.13;10462880;28;20044;-81
2022/12/16 03:50:34;;;;;;;1.60;1.50;;;;;;;-2.59;94.27;100939.38;10456137;28;20052;-81
2022/12/16 03:55:38;;;;;;;1.90;1.58;;;;;;;-2.59;94.40;100947.06;10458872;28;20060;-80
2022/12/16 04:00:40;;;;;;;1.63;1.13;;;;;;;-2.66;94.31;100950.84;10482379;28;20044;-80
2022/12/16 04:05:44;;;;;;;2.75;2.53;;;;;;;-2.61;94.23;100958.84;10435389;28;20053;-80
2022/12/16 04:27:26;;;;;;;2.53;2.33;;;;;;;-2.63;93.93;100965.56;10466924;28;20054;-80
2022/12/16 04:34:24;;;;;;;2.05;1.30;;;;;;;-2.61;93.90;100974.25;10469844;28;20045;-79
